Time;durP1;ratioP1;P1;durP2;ratioP2;P2;SDS_P1;SDS_P2;PMS_P1;PMS_P2;Temp;Humidity;BMP_temperature;BMP_pressure;BME280_temperature;BME280_humidity;BME280_pressure;Samples;Min_cycle;Max_cycle;Signal;HPM_P1;HPM_P2
2023/02/22 00:00:25;;;;;;;8.50;5.65;;;;;;;19.17;41.16;101450.94;5123505;27;20038;-68
2023/02/22 00:02:58;;;;;;;7.65;5.35;;;;;;;19.15;41.20;101447.56;5123201;27;20031;-68
2023/02/22 00:05:25;;;;;;;8.35;5.80;;;;;;;19.14;41.21;101453.81;5123539;27;20501;-68
2023/02/22 00:07:50;;;;;;;8.15;4.95;;;;;;;19.11;41.10;101443.47;5104412;27;20042;-67
2023/02/22 00:10:19;;;;;;;8.73;5.78;;;;;;;19.13;41.12;101452.94;5123419;27;20039;-68
2023/02/22 00:12:47;;;;;;;8.15;5.78;;;;;;;19.12;41.25;101450.44;5123089;27;20054;-68
2023/02/22 00:15:14;;;;;;;8.57;6.00;;;;;;;19.11;40.95;101446.94;5122710;27;20092;-68
2023/02/22 00:17:40;;;;;;;8.00;5.70;;;;;;;19.08;40.92;101433.97;5122942;27;20037;-68
2023/02/22 00:20:07;;;;;;;7.95;5.55;;;;;;;19.09;41.12;101432.16;5122966;27;20035;-68
2023/02/22 00:22:32;;;;;;;9.98;6.28;;;;;;;19.07;41.14;101436.72;5104325;27;20031;-68
2023/02/22 00:24:58;;;;;;;9.70;5.93;;;;;;;19.07;40.91;101437.56;5122789;27;20043;-68
2023/02/22 00:27:23;;;;;;;10.00;6.00;;;;;;;19.03;40.95;101434.31;5123001;27;20074;-68
2023/02/22 00:29:48;;;;;;;8.68;5.95;;;;;;;19.04;41.04;101432.50;5122357;27;20033;-68
2023/02/22 00:32:14;;;;;;;9.10;6.30;;;;;;;19.05;41.08;101434.22;5122699;27;20031;-68
2023/02/22 00:34:40;;;;;;;8.70;5.85;;;;;;;19.01;40.90;101430.13;5122497;27;20454;-68
2023/02/22 00:37:05;;;;;;;10.02;6.68;;;;;;;19.02;40.94;101429.16;5122636;27;20622;-68
2023/02/22 00:39:31;;;;;;;8.18;5.38;;;;;;;19.02;40.81;101431.78;5122179;27;20467;-68
2023/02/22 00:41:56;;;;;;;8.70;6.00;;;;;;;19.01;41.07;101428.31;5122653;27;20485;-68
2023/02/22 00:44:22;;;;;;;9.52;6.43;;;;;;;18.97;40.98;101426.03;5122432;27;20028;-68
2023/02/22 00:46:48;;;;;;;8.90;5.93;;;;;;;18.96;41.06;101430.47;5122564;27;20034;-68
2023/02/22 00:49:15;;;;;;;9.57;6.43;;;;;;;18.97;40.75;101434.78;5121052;27;20615;-68
2023/02/22 00:51:40;;;;;;;9.27;6.05;;;;;;;18.94;40.98;101423.63;5122574;27;20036;-68
2023/02/22 00:54:06;;;;;;;8.27;6.00;;;;;;;18.95;40.77;101422.66;5122510;27;20029;-67
2023/02/22 00:56:33;;;;;;;8.93;6.18;;;;;;;18.92;40.93;101426.38;5122092;27;20148;-68
2023/02/22 00:58:59;;;;;;;9.05;6.10;;;;;;;18.91;40.76;101419.41;5122253;27;20103;-68
2023/02/22 01:01:25;;;;;;;8.45;5.95;;;;;;;18.93;40.81;101421.91;5122163;27;20042;-68
2023/02/22 01:03:51;;;;;;;7.93;5.55;;;;;;;18.93;40.89;101425.41;5121690;27;20031;-67
2023/02/22 01:06:16;;;;;;;8.70;5.93;;;;;;;18.90;40.75;101419.50;5122458;27;20031;-68
2023/02/22 01:08:46;;;;;;;9.68;5.95;;;;;;;18.81;40.98;101406.00;5121990;27;20114;-69
2023/02/22 01:11:14;;;;;;;8.35;6.07;;;;;;;18.90;40.66;101414.22;5121970;27;20096;-69
2023/02/22 01:13:39;;;;;;;8.75;6.22;;;;;;;18.86;40.85;101397.78;5122081;27;20564;-67
2023/02/22 01:16:07;;;;;;;8.90;5.78;;;;;;;18.87;40.70;101404.75;5121822;27;21005;-68
2023/02/22 01:18:36;;;;;;;7.88;5.95;;;;;;;18.84;40.85;101399.69;5121597;27;20824;-68
2023/02/22 01:21:02;;;;;;;8.27;5.50;;;;;;;18.84;40.60;101405.81;5120921;27;20115;-68
2023/02/22 01:23:28;;;;;;;7.97;5.85;;;;;;;18.83;41.01;101396.19;5121471;27;20595;-68
2023/02/22 01:25:53;;;;;;;9.20;6.38;;;;;;;18.85;40.68;101401.41;5121730;27;20126;-69
2023/02/22 01:28:18;;;;;;;9.85;6.55;;;;;;;18.82;40.81;101391.03;5121685;27;20027;-67
2023/02/22 01:30:44;;;;;;;8.45;5.60;;;;;;;18.81;40.58;101392.81;5121774;27;20050;-67
2023/02/22 01:33:11;;;;;;;8.63;6.00;;;;;;;18.79;40.61;101381.53;5103439;28;20828;-68
2023/02/22 01:35:40;;;;;;;7.85;5.82;;;;;;;18.81;40.83;101395.44;5121868;27;20036;-68
2023/02/22 01:38:07;;;;;;;9.50;6.25;;;;;;;18.80;40.73;101393.78;5121649;27;20034;-67
2023/02/22 01:40:36;;;;;;;9.00;6.18;;;;;;;18.79;40.75;101393.91;5121498;28;20485;-68
2023/02/22 01:43:15;;;;;;;8.70;6.28;;;;;;;18.75;40.69;101385.34;5121527;28;20033;-67
2023/02/22 01:45:54;;;;;;;8.80;6.15;;;;;;;18.76;40.63;101381.75;5121959;28;20039;-68
2023/02/22 01:48:37;;;;;;;10.05;6.20;;;;;;;18.76;40.70;101381.75;5121662;28;20399;-67
2023/02/22 01:51:12;;;;;;;8.47;5.60;;;;;;;18.76;40.69;101376.47;5121490;28;20459;-68
2023/02/22 01:53:53;;;;;;;9.55;6.18;;;;;;;18.74;40.74;101370.47;5121705;27;20035;-67
2023/02/22 01:56:20;;;;;;;9.05;6.15;;;;;;;18.75;40.67;101376.59;5121834;28;20133;-68
2023/02/22 01:58:53;;;;;;;9.82;6.03;;;;;;;18.72;40.67;101368.91;5121710;27;20079;-68
2023/02/22 02:01:21;;;;;;;10.23;6.10;;;;;;;18.70;40.58;101362.91;5123982;27;20043;-68
2023/02/22 02:03:49;;;;;;;9.15;6.47;;;;;;;18.72;40.64;101363.63;5125820;27;20035;-68
2023/02/22 02:06:15;;;;;;;9.90;6.70;;;;;;;18.70;40.64;101357.63;5125504;27;20039;-68
2023/02/22 02:08:41;;;;;;;8.77;6.13;;;;;;;18.71;40.67;101352.22;5125515;27;20080;-68
2023/02/22 02:11:08;;;;;;;9.63;6.43;;;;;;;18.67;40.71;101354.28;5125616;27;20027;-68
2023/02/22 02:13:34;;;;;;;8.77;6.00;;;;;;;18.67;40.76;101349.00;5125356;27;20764;-68
2023/02/22 02:15:59;;;;;;;9.70;6.50;;;;;;;18.69;40.86;101348.84;5105488;27;20055;-68
2023/02/22 02:18:27;;;;;;;10.38;6.30;;;;;;;18.66;40.83;101346.47;5125322;27;20568;-68
2023/02/22 02:21:20;;;;;;;9.07;6.25;;;;;;;18.70;40.90;101349.72;5125259;27;20035;-67
2023/02/22 02:24:07;;;;;;;8.90;6.18;;;;;;;18.68;40.40;101345.38;5125354;27;20027;-68
2023/02/22 02:26:48;;;;;;;8.60;5.90;;;;;;;18.71;41.19;101338.16;5125212;27;20031;-67
2023/02/22 02:29:28;;;;;;;8.90;6.53;;;;;;;18.70;40.74;101339.97;5124988;27;20562;-68
2023/02/22 02:32:29;;;;;;;8.65;6.07;;;;;;;18.70;40.78;101336.50;5125172;27;20035;-68
2023/02/22 02:35:11;;;;;;;9.23;5.93;;;;;;;18.65;40.87;101329.75;5060955;28;20405;-68
2023/02/22 02:37:57;;;;;;;9.13;6.35;;;;;;;18.68;40.76;101331.34;5118843;27;20062;-68
2023/02/22 02:40:46;;;;;;;8.65;6.18;;;;;;;18.68;40.67;101334.81;5124861;27;20507;-65
2023/02/22 02:43:21;;;;;;;9.25;6.40;;;;;;;18.64;40.52;101333.38;5124536;27;20122;-67
2023/02/22 02:46:25;;;;;;;8.73;5.85;;;;;;;18.65;40.59;101331.56;5124835;27;20130;-68
2023/02/22 02:48:59;;;;;;;8.23;5.72;;;;;;;18.60;40.81;101324.00;5122164;27;20043;-68
2023/02/22 02:51:30;;;;;;;9.55;6.03;;;;;;;18.62;40.60;101335.28;5124896;27;20036;-68
2023/02/22 02:53:56;;;;;;;9.52;6.38;;;;;;;18.63;40.58;101333.50;5124861;27;20479;-68
2023/02/22 02:56:22;;;;;;;7.93;5.97;;;;;;;18.64;40.57;101332.50;5124570;27;20046;-68
2023/02/22 02:58:52;;;;;;;8.05;5.75;;;;;;;18.60;40.82;101329.28;5124317;27;20062;-68
2023/02/22 03:01:39;;;;;;;8.32;5.63;;;;;;;18.60;40.76;101331.09;5124222;27;20043;-68
2023/02/22 03:04:16;;;;;;;8.25;5.95;;;;;;;18.49;40.58;101316.06;5124646;27;20411;-67
2023/02/22 03:06:47;;;;;;;8.50;6.03;;;;;;;18.59;40.63;101321.47;5124578;27;20038;-69
2023/02/22 03:09:45;;;;;;;7.97;5.28;;;;;;;18.57;40.59;101321.59;5124230;27;20031;-67
2023/02/22 03:12:13;;;;;;;7.90;5.28;;;;;;;18.59;40.71;101317.03;5123676;27;20475;-69
2023/02/22 03:14:55;;;;;;;8.05;5.65;;;;;;;18.54;40.82;101307.78;5124307;27;20035;-69
2023/02/22 03:17:29;;;;;;;8.85;6.07;;;;;;;18.55;40.43;101305.03;5124634;27;20046;-67
2023/02/22 03:20:03;;;;;;;8.07;5.38;;;;;;;18.55;40.46;101307.69;5123921;27;20027;-68
2023/02/22 03:22:36;;;;;;;8.60;5.53;;;;;;;18.56;40.63;101303.22;5124398;27;20117;-69
2023/02/22 03:25:09;;;;;;;8.45;5.80;;;;;;;18.52;40.71;101293.84;5123986;27;20035;-68
2023/02/22 03:27:52;;;;;;;7.63;5.28;;;;;;;18.53;40.66;101295.53;5123628;27;20027;-69
2023/02/22 03:30:41;;;;;;;7.22;4.80;;;;;;;18.49;40.87;101285.22;5124319;27;20038;-69
2023/02/22 03:33:16;;;;;;;6.82;4.97;;;;;;;18.49;40.67;101279.09;5124174;27;20501;-68
2023/02/22 03:35:55;;;;;;;6.82;4.50;;;;;;;18.48;40.70;101280.91;5124031;27;20039;-68
2023/02/22 03:38:25;;;;;;;7.78;5.18;;;;;;;18.49;40.56;101269.38;5123902;27;20126;-68
2023/02/22 03:40:58;;;;;;;7.40;5.10;;;;;;;18.51;40.68;101273.72;5105662;27;20084;-68
2023/02/22 03:43:29;;;;;;;7.63;5.20;;;;;;;18.47;40.63;101268.66;5123786;27;20615;-68
2023/02/22 03:45:57;;;;;;;7.65;5.10;;;;;;;18.49;40.61;101260.63;5123794;27;20558;-67
2023/02/22 03:48:44;;;;;;;7.65;4.97;;;;;;;18.49;40.56;101268.53;5123486;27;20030;-67
2023/02/22 03:51:13;;;;;;;6.80;4.47;;;;;;;18.47;40.81;101260.75;5123689;27;20034;-67
2023/02/22 03:53:40;;;;;;;7.05;5.07;;;;;;;18.49;40.57;101264.09;5123434;27;20035;-68
2023/02/22 03:56:09;;;;;;;6.85;4.70;;;;;;;18.46;40.45;101252.94;5123570;27;20084;-68
2023/02/22 03:58:36;;;;;;;7.57;5.00;;;;;;;18.46;40.46;101247.66;5123160;27;20062;-67
2023/02/22 04:01:02;;;;;;;7.03;4.65;;;;;;;18.47;40.59;101244.91;5123533;27;20031;-68
2023/02/22 04:03:27;;;;;;;6.45;4.82;;;;;;;18.45;40.56;101238.06;5121802;27;20043;-68
2023/02/22 04:05:53;;;;;;;6.68;4.80;;;;;;;18.46;40.38;101232.66;5123529;27;20034;-67
2023/02/22 04:08:18;;;;;;;7.22;5.10;;;;;;;18.43;40.54;101226.78;5123251;27;20118;-68
2023/02/22 04:10:43;;;;;;;6.70;5.20;;;;;;;18.47;40.48;101231.72;5123490;27;20079;-68
2023/02/22 04:13:09;;;;;;;6.50;4.40;;;;;;;18.46;40.65;101234.47;5104683;27;20091;-68
2023/02/22 04:15:35;;;;;;;6.70;4.70;;;;;;;18.45;40.45;101236.28;5122805;27;20043;-67
2023/02/22 04:18:00;;;;;;;6.68;4.32;;;;;;;18.42;40.55;101225.94;5123238;27;20031;-67
2023/02/22 04:20:26;;;;;;;6.50;4.25;;;;;;;18.42;40.59;101225.94;5123359;27;20035;-67
2023/02/22 04:22:52;;;;;;;5.68;3.88;;;;;;;18.42;40.47;101217.19;5122762;27;20412;-67
2023/02/22 04:25:18;;;;;;;6.40;4.20;;;;;;;18.44;40.43;101220.56;5123098;27;20031;-67
2023/02/22 04:27:43;;;;;;;7.20;4.32;;;;;;;18.40;40.67;101206.72;5122967;27;20113;-68
2023/02/22 04:30:10;;;;;;;7.40;5.05;;;;;;;18.41;40.69;101220.78;5122576;27;20118;-68
2023/02/22 04:32:35;;;;;;;6.75;4.70;;;;;;;18.37;40.70;101204.31;5123146;27;20390;-68
2023/02/22 04:35:01;;;;;;;6.65;4.50;;;;;;;18.42;40.62;101219.81;5122594;27;20027;-68
2023/02/22 04:37:26;;;;;;;7.40;5.05;;;;;;;18.41;40.72;101220.78;5122885;27;20447;-68
2023/02/22 04:39:52;;;;;;;7.25;4.93;;;;;;;18.42;40.67;101225.94;5122438;27;20027;-67
2023/02/22 04:42:17;;;;;;;7.95;5.10;;;;;;;18.43;40.34;101229.41;5122462;27;20173;-68
2023/02/22 04:44:42;;;;;;;7.53;4.93;;;;;;;18.41;40.44;101226.91;5122585;27;20030;-67
2023/02/22 04:47:07;;;;;;;7.15;4.78;;;;;;;18.42;40.46;101225.09;5122756;27;20110;-67
2023/02/22 04:49:33;;;;;;;7.70;5.07;;;;;;;18.41;40.39;101216.34;5103600;27;20095;-67
2023/02/22 04:51:58;;;;;;;7.53;5.00;;;;;;;18.39;40.89;101231.47;5122616;27;20727;-68
2023/02/22 04:54:23;;;;;;;7.60;5.05;;;;;;;18.41;40.44;101226.06;5122435;27;20403;-67
2023/02/22 04:56:49;;;;;;;7.00;5.07;;;;;;;18.40;40.48;101211.19;5122349;27;20062;-67
2023/02/22 04:59:14;;;;;;;6.40;4.68;;;;;;;18.36;40.32;101205.31;5121939;27;20031;-68
2023/02/22 05:01:39;;;;;;;7.43;5.28;;;;;;;18.38;40.37;101213.09;5122275;27;20031;-68
2023/02/22 05:04:06;;;;;;;7.40;4.93;;;;;;;18.39;40.36;101206.84;5122266;27;20031;-67
2023/02/22 05:06:31;;;;;;;7.13;4.78;;;;;;;18.35;40.18;101200.97;5122024;27;20114;-67
2023/02/22 05:08:56;;;;;;;7.15;4.70;;;;;;;18.35;40.45;101197.50;5121935;27;20111;-68
2023/02/22 05:11:22;;;;;;;7.25;4.95;;;;;;;18.34;40.29;101191.41;5122086;27;21370;-68
2023/02/22 05:13:47;;;;;;;7.28;4.90;;;;;;;18.33;40.45;101196.78;5122224;27;20035;-69
2023/02/22 05:16:13;;;;;;;6.68;4.78;;;;;;;18.31;40.22;101179.28;5122254;27;20051;-67
2023/02/22 05:18:39;;;;;;;7.82;5.45;;;;;;;18.33;40.59;101179.16;5122400;27;20027;-66
2023/02/22 05:21:05;;;;;;;7.30;4.95;;;;;;;18.31;40.61;101181.09;5122650;27;20031;-66
2023/02/22 05:23:31;;;;;;;7.68;4.80;;;;;;;18.32;40.45;101180.09;5122856;27;20092;-66
2023/02/22 05:25:57;;;;;;;7.13;4.75;;;;;;;18.31;40.62;101176.63;5122462;27;20019;-68
2023/02/22 05:28:22;;;;;;;7.30;4.75;;;;;;;18.31;40.59;101170.53;5122415;27;20122;-68
2023/02/22 05:30:47;;;;;;;8.38;5.07;;;;;;;18.30;40.58;101168.84;5122435;27;20046;-67
2023/02/22 05:33:13;;;;;;;7.22;4.93;;;;;;;18.29;40.44;101170.66;5121961;27;20151;-67
2023/02/22 05:35:38;;;;;;;7.75;5.32;;;;;;;18.31;40.47;101168.72;5121520;27;20042;-67
2023/02/22 05:38:04;;;;;;;7.70;5.10;;;;;;;18.30;40.40;101163.56;5122191;27;21138;-67
2023/02/22 05:40:30;;;;;;;8.00;5.20;;;;;;;18.29;40.33;101159.22;5121541;28;20110;-66
2023/02/22 05:42:56;;;;;;;7.72;5.15;;;;;;;18.29;40.53;101167.13;5121403;28;20123;-67
2023/02/22 05:45:23;;;;;;;7.22;4.97;;;;;;;18.27;40.76;101155.88;5121505;27;20062;-67
2023/02/22 05:47:50;;;;;;;7.45;4.93;;;;;;;18.28;40.66;101165.47;5121645;27;20039;-67
2023/02/22 05:50:16;;;;;;;7.80;5.10;;;;;;;18.28;40.60;101155.75;5121548;28;20027;-68
2023/02/22 05:52:41;;;;;;;7.85;5.20;;;;;;;18.25;40.43;101153.34;5121549;28;20039;-67
2023/02/22 05:55:09;;;;;;;7.60;5.18;;;;;;;18.27;40.59;101153.25;5099482;28;20405;-67
2023/02/22 05:57:34;;;;;;;7.20;4.68;;;;;;;18.24;40.68;101148.19;5102912;28;20391;-67
2023/02/22 06:00:00;;;;;;;6.97;4.68;;;;;;;18.24;40.98;101143.75;5120386;27;20031;-69
2023/02/22 06:02:26;;;;;;;6.70;4.20;;;;;;;18.24;41.01;101140.28;5122167;28;20971;-68
2023/02/22 06:04:51;;;;;;;6.40;3.72;;;;;;;18.21;41.05;101129.97;5121879;27;20050;-68
2023/02/22 06:07:16;;;;;;;5.65;3.63;;;;;;;18.20;41.42;101128.28;5121592;28;20034;-69
2023/02/22 06:09:42;;;;;;;5.80;3.40;;;;;;;18.22;41.46;101118.47;5120449;28;20130;-68
2023/02/22 06:12:08;;;;;;;5.70;3.88;;;;;;;18.24;41.52;101108.63;5121442;28;20091;-69
2023/02/22 06:14:33;;;;;;;5.38;3.53;;;;;;;18.30;41.41;101121.34;5120265;28;20027;-69
2023/02/22 06:16:59;;;;;;;6.22;3.40;;;;;;;18.34;41.32;101116.66;5119597;27;20051;-68
2023/02/22 06:19:26;;;;;;;5.10;3.22;;;;;;;18.35;41.47;101107.78;5121497;28;20031;-68
2023/02/22 06:21:56;;;;;;;5.15;3.38;;;;;;;18.37;41.39;101109.34;5120412;28;20062;-69
2023/02/22 06:24:22;;;;;;;5.50;3.58;;;;;;;18.43;41.22;101103.59;5121417;28;20387;-69
2023/02/22 06:26:56;;;;;;;5.47;3.60;;;;;;;18.45;41.45;101096.41;5121434;28;20032;-69
2023/02/22 06:29:22;;;;;;;5.07;3.13;;;;;;;18.49;41.04;101097.00;5121122;28;20686;-69
2023/02/22 06:31:48;;;;;;;5.05;3.20;;;;;;;18.49;41.21;101095.19;5121195;27;20041;-69
2023/02/22 06:34:13;;;;;;;5.18;3.30;;;;;;;18.54;41.04;101100.09;5121174;28;20039;-69
2023/02/22 06:36:38;;;;;;;5.25;3.40;;;;;;;18.57;41.06;101096.41;5120988;28;20037;-68
2023/02/22 06:39:03;;;;;;;5.95;3.80;;;;;;;18.55;41.09;101091.25;5120144;28;20031;-68
2023/02/22 06:41:29;;;;;;;5.75;3.15;;;;;;;18.58;41.13;101084.84;5121018;27;20141;-69
2023/02/22 06:43:54;;;;;;;5.35;3.30;;;;;;;18.60;41.19;101098.78;5121667;28;20030;-67
2023/02/22 06:46:20;;;;;;;5.45;3.45;;;;;;;18.61;41.11;101092.53;5121029;27;20603;-69
2023/02/22 06:48:46;;;;;;;5.18;3.03;;;;;;;18.66;41.15;101104.41;5124439;27;20038;-69
2023/02/22 06:51:11;;;;;;;5.13;3.00;;;;;;;18.58;40.94;101085.72;5123930;27;20027;-68
2023/02/22 06:53:36;;;;;;;5.05;3.25;;;;;;;18.69;41.14;101105.97;5124669;27;20498;-68
2023/02/22 06:56:02;;;;;;;4.97;3.25;;;;;;;18.70;41.00;101110.28;5124445;27;20062;-68
2023/02/22 06:58:27;;;;;;;4.90;3.15;;;;;;;18.70;40.93;101112.09;5123849;27;20122;-68
2023/02/22 07:00:53;;;;;;;5.43;3.20;;;;;;;18.70;40.87;101104.19;5124271;27;20093;-68
2023/02/22 07:03:18;;;;;;;5.22;3.40;;;;;;;18.70;41.09;101107.66;5124380;27;20027;-68
2023/02/22 07:05:44;;;;;;;6.95;3.50;;;;;;;18.72;40.80;101105.72;5124488;27;20496;-68
2023/02/22 07:08:10;;;;;;;5.57;3.35;;;;;;;18.73;40.96;101110.03;5124647;27;20030;-69
2023/02/22 07:10:36;;;;;;;6.32;3.38;;;;;;;18.76;40.85;101115.09;5124192;27;20039;-69
2023/02/22 07:13:04;;;;;;;5.60;3.25;;;;;;;18.75;40.88;101118.69;5105111;27;20053;-69
2023/02/22 07:15:31;;;;;;;5.57;3.30;;;;;;;18.73;40.90;101123.25;5124321;27;20058;-69
2023/02/22 07:17:57;;;;;;;5.88;3.67;;;;;;;18.75;40.87;101121.31;5124410;27;20065;-69
2023/02/22 07:20:24;;;;;;;7.07;3.55;;;;;;;18.73;40.77;101114.50;5123988;27;20092;-69
2023/02/22 07:22:50;;;;;;;5.43;3.15;;;;;;;18.76;40.69;101116.91;5124307;27;20030;-68
2023/02/22 07:25:16;;;;;;;5.20;3.17;;;;;;;18.76;40.87;101128.28;5123437;27;20035;-68
2023/02/22 07:27:42;;;;;;;5.18;3.28;;;;;;;18.71;41.12;101116.41;5124956;27;20570;-68
2023/02/22 07:30:15;;;;;;;5.20;3.00;;;;;;;18.73;40.90;101120.59;5123500;27;20027;-68
2023/02/22 07:32:41;;;;;;;6.13;3.72;;;;;;;18.73;40.73;101120.59;5124053;27;20027;-69
2023/02/22 07:35:14;;;;;;;6.10;3.40;;;;;;;18.76;40.85;101135.38;5123879;27;20034;-68
2023/02/22 07:37:39;;;;;;;5.05;3.05;;;;;;;18.76;40.66;101141.50;5124016;27;20200;-68
2023/02/22 07:40:05;;;;;;;5.77;3.70;;;;;;;18.75;40.78;101136.31;5123315;27;20142;-69
2023/02/22 07:42:31;;;;;;;5.25;3.42;;;;;;;18.77;40.79;101134.41;5123335;27;20286;-68
2023/02/22 07:44:57;;;;;;;5.70;3.63;;;;;;;18.77;40.74;101135.25;5124775;27;20019;-68
2023/02/22 07:47:22;;;;;;;6.10;3.90;;;;;;;18.75;41.08;101136.31;5123368;27;20027;-69
2023/02/22 07:49:47;;;;;;;5.88;3.53;;;;;;;18.65;40.89;101123.84;5122057;27;20023;-68
2023/02/22 07:52:13;;;;;;;6.15;3.90;;;;;;;18.74;41.04;101134.63;5123056;27;20452;-67
2023/02/22 07:54:38;;;;;;;7.22;4.05;;;;;;;18.78;41.01;101144.00;5123551;27;20023;-68
2023/02/22 07:57:04;;;;;;;6.22;3.70;;;;;;;18.76;41.07;101146.78;5122686;27;20043;-68
2023/02/22 07:59:29;;;;;;;7.07;4.22;;;;;;;18.76;41.28;101145.94;5121552;27;20027;-68
2023/02/22 08:01:54;;;;;;;5.78;3.67;;;;;;;18.76;41.29;101153.84;5103502;27;20023;-69
2023/02/22 08:04:20;;;;;;;6.50;3.70;;;;;;;18.75;41.37;101147.72;5123869;27;20163;-69
2023/02/22 08:06:45;;;;;;;7.47;3.53;;;;;;;18.76;41.63;101149.41;5123369;27;20118;-68
2023/02/22 08:09:10;;;;;;;5.53;3.72;;;;;;;18.74;41.59;101135.50;5122853;27;20675;-68
2023/02/22 08:11:36;;;;;;;6.28;3.95;;;;;;;18.72;41.83;101128.66;5123374;27;20038;-68
2023/02/22 08:14:01;;;;;;;5.68;3.72;;;;;;;18.77;41.64;101124.69;5123426;27;20041;-69
2023/02/22 08:16:26;;;;;;;7.72;3.80;;;;;;;18.74;41.75;101122.28;5123578;27;20047;-68
2023/02/22 08:18:52;;;;;;;5.93;3.80;;;;;;;18.78;41.76;101125.53;5123178;27;20035;-69
2023/02/22 08:21:17;;;;;;;5.40;3.53;;;;;;;18.76;41.87;101120.38;5123490;27;20213;-73
2023/02/22 08:23:42;;;;;;;7.07;3.80;;;;;;;18.79;41.79;101116.66;5122951;27;20048;-68
2023/02/22 08:26:14;;;;;;;6.40;3.90;;;;;;;18.76;41.84;101114.25;5123484;27;20023;-70
2023/02/22 08:28:39;;;;;;;5.72;3.58;;;;;;;18.81;41.71;101120.00;5123349;27;20251;-68
2023/02/22 08:31:06;;;;;;;5.30;3.30;;;;;;;18.83;41.88;101120.72;5123463;27;20367;-67
2023/02/22 08:33:31;;;;;;;5.65;3.40;;;;;;;18.83;42.04;101129.50;5123280;27;20578;-68
2023/02/22 08:35:57;;;;;;;5.68;3.35;;;;;;;18.81;42.01;101122.63;5123696;27;20072;-68
2023/02/22 08:38:26;;;;;;;5.80;3.20;;;;;;;18.84;42.21;101120.63;5123474;27;20030;-67
2023/02/22 08:40:51;;;;;;;7.25;3.50;;;;;;;18.83;42.30;101126.84;5122933;27;20038;-67
2023/02/22 08:43:18;;;;;;;5.60;3.42;;;;;;;18.87;42.16;101134.53;5123316;27;20378;-67
2023/02/22 08:45:44;;;;;;;5.95;3.67;;;;;;;18.89;42.19;101122.06;5123769;27;20533;-71
2023/02/22 08:48:10;;;;;;;6.28;3.53;;;;;;;18.88;42.52;101117.72;5121785;27;20830;-70
2023/02/22 08:50:36;;;;;;;5.90;3.53;;;;;;;18.91;42.59;101126.25;5126178;27;20031;-69
2023/02/22 08:53:04;;;;;;;8.55;3.45;;;;;;;18.88;42.66;101117.72;5125278;27;20053;-69
2023/02/22 08:55:33;;;;;;;5.32;3.20;;;;;;;18.89;42.72;101124.72;5125973;27;20039;-69
2023/02/22 08:58:00;;;;;;;8.68;3.80;;;;;;;18.88;42.92;101126.50;5125759;27;20118;-70
2023/02/22 09:00:28;;;;;;;5.55;3.17;;;;;;;18.93;42.59;101120.84;5123449;27;20033;-70
2023/02/22 09:02:54;;;;;;;6.93;3.60;;;;;;;18.93;42.81;101111.13;5123332;27;20027;-69
2023/02/22 09:05:20;;;;;;;6.60;3.47;;;;;;;18.93;42.81;101111.13;5123674;27;20056;-70
2023/02/22 09:07:46;;;;;;;5.53;3.53;;;;;;;18.96;42.58;101110.03;5123295;27;20109;-68
2023/02/22 09:10:17;;;;;;;6.00;3.40;;;;;;;18.93;42.79;101094.44;5121394;27;20027;-70
2023/02/22 09:12:43;;;;;;;5.10;3.13;;;;;;;18.95;42.77;101098.63;5122380;27;20023;-70
2023/02/22 09:15:10;;;;;;;5.35;3.28;;;;;;;18.93;42.78;101090.00;5122215;27;20477;-70
2023/02/22 09:17:36;;;;;;;5.28;3.00;;;;;;;18.97;42.72;101091.41;5121780;27;20035;-70
2023/02/22 09:20:03;;;;;;;7.20;3.17;;;;;;;18.95;42.77;101079.31;5121754;27;20114;-69
2023/02/22 09:22:28;;;;;;;6.07;3.30;;;;;;;19.00;42.96;101085.06;5122555;27;20034;-68
2023/02/22 09:24:53;;;;;;;5.68;3.22;;;;;;;18.98;42.81;101077.25;5123615;27;20395;-68
2023/02/22 09:27:19;;;;;;;5.13;3.15;;;;;;;19.00;42.81;101083.25;5122290;27;20152;-69
2023/02/22 09:29:47;;;;;;;5.78;3.17;;;;;;;18.99;42.71;101080.72;5122040;27;20035;-67
2023/02/22 09:32:12;;;;;;;5.97;3.60;;;;;;;19.05;42.93;101084.69;5121583;27;20038;-67
2023/02/22 09:34:44;;;;;;;5.97;3.50;;;;;;;19.03;42.64;101076.88;5121975;27;20043;-67
2023/02/22 09:37:10;;;;;;;7.38;3.63;;;;;;;19.04;42.66;101078.53;5122005;27;20107;-68
2023/02/22 09:39:36;;;;;;;5.45;3.40;;;;;;;19.02;42.69;101076.03;5121903;28;20370;-67
2023/02/22 09:42:14;;;;;;;5.80;3.08;;;;;;;19.05;42.71;101076.75;5121789;27;20042;-68
2023/02/22 09:44:47;;;;;;;5.57;3.40;;;;;;;19.03;42.66;101075.06;5121938;28;20042;-69
2023/02/22 09:47:19;;;;;;;6.13;3.40;;;;;;;19.02;42.85;101077.84;5121877;27;20042;-69
2023/02/22 09:49:57;;;;;;;5.72;3.33;;;;;;;19.03;42.79;101083.00;5121568;28;20035;-70
2023/02/22 09:52:27;;;;;;;5.13;3.28;;;;;;;19.04;42.70;101078.53;5121796;27;20092;-69
2023/02/22 09:55:27;;;;;;;5.53;3.00;;;;;;;19.02;42.81;101081.31;5121920;27;20114;-71
2023/02/22 09:57:57;;;;;;;5.35;3.25;;;;;;;19.02;42.55;101069.91;5116273;27;20039;-71
2023/02/22 10:00:35;;;;;;;5.53;3.30;;;;;;;19.06;42.56;101074.00;5120707;27;20046;-69
2023/02/22 10:03:19;;;;;;;5.78;3.13;;;;;;;19.10;42.58;101071.94;5121288;28;20037;-65
2023/02/22 10:05:55;;;;;;;5.95;3.70;;;;;;;19.10;42.56;101070.13;5121136;27;20391;-67
2023/02/22 10:08:25;;;;;;;5.25;3.03;;;;;;;19.14;42.33;101073.38;5121085;28;20035;-66
2023/02/22 10:11:05;;;;;;;5.97;3.25;;;;;;;19.17;42.57;101073.97;5102651;28;20027;-67
2023/02/22 10:13:52;;;;;;;6.85;3.85;;;;;;;19.20;42.44;101070.19;5121076;28;20886;-66
2023/02/22 10:16:28;;;;;;;5.70;3.10;;;;;;;19.20;42.42;101068.41;5120945;28;20043;-70
2023/02/22 10:19:07;;;;;;;7.85;3.85;;;;;;;19.22;42.54;101063.00;5120341;27;20475;-67
2023/02/22 10:21:54;;;;;;;8.15;3.10;;;;;;;19.21;42.40;101062.16;5122215;27;20027;-66
2023/02/22 10:24:25;;;;;;;6.90;3.50;;;;;;;19.21;42.37;101067.44;5125287;27;20042;-68
2023/02/22 10:26:53;;;;;;;6.55;3.40;;;;;;;19.15;42.40;101051.25;5124845;27;20498;-68
2023/02/22 10:29:38;;;;;;;6.28;3.65;;;;;;;19.17;42.66;101060.75;5124339;27;20039;-67
2023/02/22 10:32:06;;;;;;;6.28;3.30;;;;;;;19.17;42.42;101066.03;5124623;27;20027;-67
2023/02/22 10:34:39;;;;;;;7.68;3.72;;;;;;;19.16;42.72;101069.63;5105318;27;20054;-68
2023/02/22 10:37:28;;;;;;;5.32;3.30;;;;;;;19.18;42.51;101066.84;5105536;27;20039;-69
2023/02/22 10:40:17;;;;;;;6.13;3.47;;;;;;;19.24;42.42;101074.28;5123085;27;20047;-68
2023/02/22 10:42:43;;;;;;;6.47;3.13;;;;;;;19.23;42.46;101067.31;5123457;27;20441;-68
2023/02/22 10:45:17;;;;;;;5.40;2.90;;;;;;;19.22;42.62;101068.28;5123420;27;20035;-67
2023/02/22 10:47:43;;;;;;;6.18;2.92;;;;;;;19.19;42.43;101058.81;5124537;27;20042;-68
2023/02/22 10:50:13;;;;;;;5.60;3.20;;;;;;;19.24;42.66;101063.72;5124477;27;20042;-68
2023/02/22 10:52:39;;;;;;;6.45;3.03;;;;;;;19.35;42.42;101070.75;5124001;27;20534;-68
2023/02/22 10:55:11;;;;;;;6.53;3.50;;;;;;;19.36;42.50;101060.06;5122546;27;20110;-67
2023/02/22 10:57:37;;;;;;;5.03;3.10;;;;;;;19.30;42.32;101065.84;5123577;27;20035;-66
2023/02/22 11:00:28;;;;;;;5.28;3.47;;;;;;;19.35;42.54;101063.66;5124113;27;20035;-68
2023/02/22 11:03:22;;;;;;;4.88;2.97;;;;;;;19.41;42.04;101064.97;5124574;27;20038;-68
2023/02/22 11:05:48;;;;;;;5.10;2.70;;;;;;;19.43;42.09;101060.38;5125278;27;20035;-69
2023/02/22 11:08:20;;;;;;;6.00;2.90;;;;;;;19.44;41.89;101070.00;5122308;27;20103;-67
2023/02/22 11:10:52;;;;;;;6.85;3.50;;;;;;;19.42;41.83;101056.06;5113235;27;20042;-67
2023/02/22 11:13:31;;;;;;;4.85;3.00;;;;;;;19.40;41.84;101056.19;5117480;27;20114;-68
2023/02/22 11:16:02;;;;;;;5.30;3.00;;;;;;;19.41;41.85;101059.69;5115706;27;20055;-67
2023/02/22 11:18:34;;;;;;;7.05;3.40;;;;;;;19.38;41.62;101052.00;5114307;27;20118;-67
2023/02/22 11:21:10;;;;;;;6.45;3.53;;;;;;;19.34;41.61;101050.56;5112590;27;20164;-68
2023/02/22 11:23:40;;;;;;;6.15;3.00;;;;;;;19.35;41.80;101054.91;5116523;27;20031;-69
2023/02/22 11:26:13;;;;;;;6.38;3.13;;;;;;;19.33;41.67;101054.22;5095509;27;20092;-69
2023/02/22 11:28:48;;;;;;;6.55;3.00;;;;;;;19.32;41.62;101049.88;5117073;27;20031;-69
2023/02/22 11:31:28;;;;;;;6.15;3.70;;;;;;;19.30;41.69;101055.28;5115337;27;20355;-69
2023/02/22 11:33:56;;;;;;;5.63;3.00;;;;;;;19.30;41.65;101051.81;5122992;27;20146;-69